Time;durP1;ratioP1;P1;durP2;ratioP2;P2;SDS_P1;SDS_P2;PMS_P1;PMS_P2;Temp;Humidity;BMP_temperature;BMP_pressure;BME280_temperature;BME280_humidity;BME280_pressure;Samples;Min_cycle;Max_cycle;Signal;HPM_P1;HPM_P2
2022/06/08 00:01:42;;;;;;;5.90;5.30;;;;;;;17.02;82.47;99739.11;130222;1270;109064;-77
2022/06/08 00:04:47;;;;;;;5.50;5.00;;;;;;;17.03;82.36;99737.56;130199;1271;108746;-75
2022/06/08 00:07:52;;;;;;;6.70;5.80;;;;;;;17.05;82.69;99746.86;130202;1270;108690;-76
2022/06/08 00:10:58;;;;;;;6.60;5.40;;;;;;;17.05;82.68;99755.44;130158;1270;108655;-76
2022/06/08 00:14:03;;;;;;;7.80;6.00;;;;;;;17.08;82.43;99753.21;130159;1271;108753;-76
2022/06/08 00:17:08;;;;;;;6.70;6.00;;;;;;;17.11;82.53;99750.05;130185;1271;108504;-76
2022/06/08 00:20:14;;;;;;;8.80;6.80;;;;;;;17.09;82.93;99743.59;130141;1271;108687;-76
2022/06/08 00:23:20;;;;;;;7.30;6.10;;;;;;;17.06;82.66;99743.86;130190;1271;108770;-76
2022/06/08 00:26:25;;;;;;;6.80;6.00;;;;;;;17.06;83.25;99742.04;130198;1271;108761;-75
2022/06/08 00:29:30;;;;;;;8.70;7.10;;;;;;;17.06;82.68;99741.34;130123;1270;108716;-74
2022/06/08 00:32:36;;;;;;;7.40;6.70;;;;;;;17.11;82.95;99745.49;130175;1271;108660;-75
2022/06/08 00:35:42;;;;;;;7.90;6.50;;;;;;;17.11;83.01;99747.52;130031;1271;108845;-76
2022/06/08 00:38:47;;;;;;;9.50;7.80;;;;;;;17.13;82.92;99749.59;130190;1271;108842;-76
2022/06/08 00:41:55;;;;;;;11.00;9.20;;;;;;;17.16;82.90;99753.61;130128;1271;108708;-76
2022/06/08 00:45:05;;;;;;;11.80;9.30;;;;;;;17.16;83.13;99753.20;130095;1271;108740;-75
2022/06/08 00:48:10;;;;;;;10.20;8.40;;;;;;;17.14;83.00;99756.55;130137;1270;108662;-75
2022/06/08 00:51:16;;;;;;;8.50;7.50;;;;;;;17.15;83.20;99757.48;130123;1269;108885;-75
2022/06/08 00:54:26;;;;;;;10.80;9.30;;;;;;;17.20;82.83;99757.02;130217;1269;108831;-74
2022/06/08 00:57:35;;;;;;;10.60;8.70;;;;;;;17.25;82.83;99761.73;130184;1271;108787;-74
2022/06/08 01:00:42;;;;;;;12.60;10.50;;;;;;;17.29;82.91;99761.73;129826;1270;374638;-75
2022/06/08 01:03:47;;;;;;;11.60;10.10;;;;;;;17.27;83.38;99761.28;130168;1271;108851;-76
2022/06/08 01:06:56;;;;;;;10.00;9.00;;;;;;;17.22;83.24;99756.01;130154;1271;109043;-75
2022/06/08 01:10:01;;;;;;;10.60;9.00;;;;;;;17.23;83.36;99751.95;130196;1271;108681;-74
2022/06/08 01:13:07;;;;;;;9.50;8.50;;;;;;;17.24;83.25;99749.80;130048;1270;108710;-74
2022/06/08 01:16:14;;;;;;;9.80;8.20;;;;;;;17.27;83.03;99742.86;130159;1271;108848;-74
2022/06/08 01:19:20;;;;;;;10.20;8.50;;;;;;;17.31;82.80;99735.39;130124;1270;107407;-73
2022/06/08 01:22:25;;;;;;;8.40;7.50;;;;;;;17.32;82.78;99725.60;130210;1269;109467;-74
2022/06/08 01:25:40;;;;;;;11.10;8.80;;;;;;;17.37;82.82;99720.95;130208;1269;108722;-74
2022/06/08 01:28:55;;;;;;;9.70;8.70;;;;;;;17.44;82.80;99720.30;130232;1269;108952;-74
2022/06/08 01:32:09;;;;;;;11.40;9.80;;;;;;;17.50;82.82;99720.46;130181;1271;107703;-74
2022/06/08 01:35:28;;;;;;;9.60;8.60;;;;;;;17.48;82.79;99718.91;130134;1270;108843;-75
2022/06/08 01:38:41;;;;;;;9.90;8.60;;;;;;;17.40;83.23;99718.32;130176;1271;108810;-76
2022/06/08 01:42:11;;;;;;;9.80;8.90;;;;;;;17.36;83.33;99713.52;130160;1271;108105;-75
2022/06/08 01:45:30;;;;;;;9.20;8.30;;;;;;;17.32;83.77;99714.76;130187;1270;108648;-76
2022/06/08 01:48:56;;;;;;;8.10;7.30;;;;;;;17.28;83.37;99710.13;130096;1270;108662;-75
2022/06/08 01:52:30;;;;;;;9.30;8.30;;;;;;;17.34;83.45;99712.41;130133;1270;108753;-76
2022/06/08 01:55:44;;;;;;;7.90;7.10;;;;;;;17.32;83.16;99706.02;130172;1271;108982;-75
2022/06/08 01:59:01;;;;;;;10.40;8.40;;;;;;;17.35;83.18;99700.95;130237;1271;108935;-75
2022/06/08 02:02:16;;;;;;;7.50;6.80;;;;;;;17.36;83.41;99695.68;130191;1271;108964;-75
2022/06/08 02:05:26;;;;;;;9.00;8.10;;;;;;;17.37;83.11;99694.96;130218;1270;108885;-71
2022/06/08 02:08:39;;;;;;;9.50;8.30;;;;;;;17.39;83.19;99694.21;130231;1271;108791;-71
2022/06/08 02:11:50;;;;;;;8.80;7.90;;;;;;;17.34;83.12;99691.98;130197;1271;109143;-72
2022/06/08 02:15:03;;;;;;;10.00;7.70;;;;;;;17.32;83.45;99694.16;130186;1271;108779;-73
2022/06/08 02:18:20;;;;;;;9.30;7.80;;;;;;;17.31;83.38;99688.14;130233;1271;108815;-72
2022/06/08 02:21:33;;;;;;;10.00;9.00;;;;;;;17.36;83.73;99686.26;130204;1271;108661;-72
2022/06/08 02:24:46;;;;;;;9.90;8.30;;;;;;;17.32;83.71;99682.61;130217;1270;108748;-74
2022/06/08 02:27:58;;;;;;;9.70;8.70;;;;;;;17.22;83.89;99674.25;130257;1271;108742;-70
2022/06/08 02:31:10;;;;;;;10.10;8.50;;;;;;;17.15;84.08;99675.14;130203;1271;108833;-72
2022/06/08 02:34:29;;;;;;;9.10;8.20;;;;;;;17.17;83.98;99672.81;130212;1271;108863;-72
2022/06/08 02:37:38;;;;;;;10.00;7.80;;;;;;;17.19;84.42;99670.20;130223;1271;107726;-71
2022/06/08 02:40:48;;;;;;;9.40;7.70;;;;;;;17.15;84.16;99675.77;130196;1269;108970;-71
2022/06/08 02:43:59;;;;;;;9.20;7.40;;;;;;;17.10;84.21;99678.43;130267;1270;107705;-71
2022/06/08 02:47:15;;;;;;;7.60;6.80;;;;;;;17.11;84.11;99686.31;130216;1270;107789;-72
2022/06/08 02:50:24;;;;;;;7.00;6.00;;;;;;;17.17;84.08;99691.53;130167;1271;108620;-71
2022/06/08 02:53:57;;;;;;;7.10;5.90;;;;;;;17.16;84.04;99689.58;130200;1271;108688;-72
2022/06/08 02:57:12;;;;;;;5.60;5.00;;;;;;;17.14;83.92;99692.02;130303;1271;108767;-73
2022/06/08 03:00:23;;;;;;;6.10;4.80;;;;;;;17.13;84.00;99689.38;130235;1270;108709;-72
2022/06/08 03:03:36;;;;;;;5.20;4.70;;;;;;;17.11;84.05;99696.67;130326;1271;108839;-73
2022/06/08 03:06:45;;;;;;;4.70;4.20;;;;;;;17.09;84.28;99702.45;130133;1271;108846;-72
2022/06/08 03:09:53;;;;;;;4.40;4.00;;;;;;;17.06;84.25;99707.71;130192;1271;108688;-72
2022/06/08 03:13:05;;;;;;;4.60;3.60;;;;;;;16.99;84.44;99712.73;130006;1271;108853;-72
2022/06/08 03:16:24;;;;;;;4.90;4.00;;;;;;;16.93;84.50;99712.36;130212;1270;108716;-75
2022/06/08 03:19:35;;;;;;;4.40;4.00;;;;;;;16.84;85.59;99708.63;130060;1270;108726;-72
2022/06/08 03:22:41;;;;;;;4.70;4.20;;;;;;;16.75;85.73;99708.77;130152;1271;108882;-72
2022/06/08 03:25:46;;;;;;;5.00;4.50;;;;;;;16.68;85.72;99711.21;130154;1271;108851;-72
2022/06/08 03:28:53;;;;;;;5.50;5.00;;;;;;;16.64;85.48;99716.45;130204;1270;108943;-72
2022/06/08 03:31:58;;;;;;;6.70;6.10;;;;;;;16.70;85.50;99716.06;130167;1271;108945;-71
2022/06/08 03:35:04;;;;;;;6.30;5.60;;;;;;;16.74;85.57;99715.45;130076;1271;108901;-72
2022/06/08 03:38:10;;;;;;;6.10;5.50;;;;;;;16.77;85.65;99710.64;130162;1270;107173;-73
2022/06/08 03:41:17;;;;;;;7.00;6.30;;;;;;;16.79;85.55;99706.83;130208;1271;108802;-76
2022/06/08 03:44:22;;;;;;;8.50;6.60;;;;;;;16.81;85.70;99706.24;130191;1270;108923;-73
2022/06/08 03:47:32;;;;;;;7.60;6.80;;;;;;;16.83;85.55;99710.29;130098;1270;108902;-73
2022/06/08 03:50:40;;;;;;;6.80;6.00;;;;;;;16.89;85.37;99720.95;130130;1270;108853;-73
2022/06/08 03:53:50;;;;;;;8.00;7.20;;;;;;;17.01;85.39;99719.52;130100;1270;107533;-73
2022/06/08 03:56:59;;;;;;;8.40;7.50;;;;;;;17.07;85.22;99717.45;130062;1271;108881;-73
2022/06/08 04:00:07;;;;;;;8.90;7.70;;;;;;;17.14;85.02;99721.35;130015;1270;108895;-73
2022/06/08 04:03:22;;;;;;;7.70;6.90;;;;;;;17.22;85.06;99728.15;130004;1270;108880;-73
2022/06/08 04:06:28;;;;;;;7.10;5.90;;;;;;;17.36;85.03;99728.66;130055;1270;108858;-73
2022/06/08 04:09:34;;;;;;;9.10;7.90;;;;;;;17.52;84.86;99728.95;130134;1270;108891;-72
2022/06/08 04:12:40;;;;;;;8.70;7.80;;;;;;;17.65;84.56;99736.44;130096;1270;108656;-74
2022/06/08 04:15:45;;;;;;;10.00;9.00;;;;;;;17.73;84.32;99741.52;130054;1270;108747;-73
2022/06/08 04:18:58;;;;;;;10.00;8.90;;;;;;;17.69;84.27;99738.29;130007;1270;108650;-72
2022/06/08 04:22:06;;;;;;;10.10;8.40;;;;;;;17.68;84.42;99740.41;130102;1270;108717;-72
2022/06/08 04:25:14;;;;;;;9.50;8.60;;;;;;;17.75;84.52;99735.61;130030;1270;109078;-73
2022/06/08 04:28:29;;;;;;;12.50;10.20;;;;;;;17.86;84.39;99737.23;130154;1270;108748;-73
2022/06/08 04:31:39;;;;;;;11.70;10.50;;;;;;;17.91;84.34;99736.05;130019;1270;108764;-72
2022/06/08 04:34:57;;;;;;;12.30;9.80;;;;;;;17.92;84.12;99735.00;130039;1270;108819;-73
2022/06/08 04:38:03;;;;;;;10.70;9.60;;;;;;;17.91;84.23;99736.70;130099;1270;108776;-73
2022/06/08 04:41:09;;;;;;;13.80;11.20;;;;;;;17.91;84.21;99738.88;130090;1270;108717;-73
2022/06/08 04:44:15;;;;;;;13.90;12.20;;;;;;;17.85;84.23;99732.53;130179;1270;108774;-73
2022/06/08 04:47:21;;;;;;;12.30;11.00;;;;;;;17.81;84.32;99731.73;130263;1271;108984;-73
2022/06/08 04:50:27;;;;;;;13.20;11.40;;;;;;;17.80;84.40;99735.27;130190;1271;108829;-73
2022/06/08 04:53:33;;;;;;;12.10;10.90;;;;;;;17.83;84.43;99735.30;130181;1271;108888;-73
2022/06/08 04:56:39;;;;;;;14.40;11.80;;;;;;;17.86;84.47;99736.56;130173;1271;108767;-72
2022/06/08 04:59:46;;;;;;;15.60;12.90;;;;;;;17.87;84.61;99733.27;130074;1271;107632;-72
2022/06/08 05:02:55;;;;;;;14.70;13.10;;;;;;;17.86;84.54;99733.41;130134;1269;109065;-73
2022/06/08 05:06:11;;;;;;;14.90;12.30;;;;;;;17.86;84.56;99734.36;130196;1270;108452;-73
2022/06/08 05:09:16;;;;;;;12.90;11.10;;;;;;;17.88;84.49;99728.34;130145;1270;108878;-73
2022/06/08 05:12:23;;;;;;;13.70;11.70;;;;;;;17.94;84.48;99736.78;130150;1269;108893;-73
2022/06/08 05:15:32;;;;;;;13.70;11.40;;;;;;;17.99;84.44;99731.65;130151;1271;108803;-72
2022/06/08 05:18:39;;;;;;;13.20;11.30;;;;;;;18.03;84.19;99728.23;130211;1271;108764;-72
2022/06/08 05:21:48;;;;;;;12.50;11.10;;;;;;;18.02;84.25;99729.55;130126;1271;108799;-73
2022/06/08 05:24:56;;;;;;;11.90;10.60;;;;;;;18.02;84.35;99727.12;130150;1270;108638;-73
2022/06/08 05:28:03;;;;;;;13.10;10.90;;;;;;;18.06;84.29;99726.39;130151;1271;108760;-73
2022/06/08 05:31:11;;;;;;;12.70;11.00;;;;;;;18.08;84.25;99721.64;130267;1270;108968;-73
2022/06/08 05:34:18;;;;;;;13.80;12.40;;;;;;;18.08;84.32;99722.89;130113;1270;109158;-73
2022/06/08 05:37:23;;;;;;;14.40;11.40;;;;;;;18.05;84.32;99724.27;130212;1270;108893;-73
2022/06/08 05:40:32;;;;;;;13.30;11.80;;;;;;;18.01;84.28;99730.98;130124;1271;108735;-72
2022/06/08 05:43:39;;;;;;;13.20;10.80;;;;;;;18.02;84.31;99729.60;130190;1271;108684;-73
2022/06/08 05:46:45;;;;;;;13.40;11.50;;;;;;;18.13;84.20;99733.88;130140;1270;108807;-73
2022/06/08 05:49:53;;;;;;;12.60;11.30;;;;;;;18.22;84.07;99734.10;130121;1270;108747;-73
2022/06/08 05:52:58;;;;;;;12.70;11.00;;;;;;;18.22;83.79;99729.21;130088;1269;108657;-73
2022/06/08 05:56:04;;;;;;;11.50;9.70;;;;;;;18.23;83.84;99730.45;129931;1269;108783;-73
2022/06/08 05:59:11;;;;;;;11.30;10.20;;;;;;;18.31;83.98;99732.78;130124;1269;108766;-73
2022/06/08 06:02:19;;;;;;;11.60;10.30;;;;;;;18.41;83.52;99731.27;130220;1271;108756;-72
2022/06/08 06:05:30;;;;;;;12.50;10.40;;;;;;;18.46;83.13;99730.98;130191;1271;108861;-71
2022/06/08 06:08:37;;;;;;;12.80;10.50;;;;;;;18.43;83.02;99736.45;130037;1271;108615;-71
2022/06/08 06:11:49;;;;;;;9.50;8.30;;;;;;;18.45;83.22;99741.91;130137;1270;108698;-72
2022/06/08 06:14:57;;;;;;;11.50;9.30;;;;;;;18.51;83.08;99747.13;130141;1271;108720;-72
2022/06/08 06:18:04;;;;;;;11.40;8.70;;;;;;;18.58;83.10;99746.90;130177;1271;108736;-71
2022/06/08 06:21:10;;;;;;;10.70;9.60;;;;;;;18.71;83.15;99744.62;130254;1271;108678;-71
2022/06/08 06:24:34;;;;;;;9.70;8.70;;;;;;;18.83;82.72;99747.84;130138;1271;108974;-71
2022/06/08 06:27:58;;;;;;;10.70;8.50;;;;;;;18.91;82.52;99754.86;130222;1270;108795;-71
2022/06/08 06:31:04;;;;;;;12.50;8.70;;;;;;;18.92;82.49;99759.67;130194;1269;107873;-71
2022/06/08 06:34:32;;;;;;;10.20;8.50;;;;;;;18.82;82.28;99763.77;130175;1271;107538;-71
2022/06/08 06:37:38;;;;;;;8.60;7.70;;;;;;;18.81;82.84;99761.73;130231;1270;108773;-71
2022/06/08 06:40:44;;;;;;;10.00;8.90;;;;;;;18.93;82.87;99757.88;130193;1269;108641;-71
2022/06/08 06:43:52;;;;;;;10.20;9.10;;;;;;;18.93;82.27;99753.09;130205;1270;108847;-71
2022/06/08 06:47:11;;;;;;;9.40;8.00;;;;;;;18.87;82.43;99747.89;130096;1270;108850;-71
2022/06/08 06:50:23;;;;;;;11.00;7.90;;;;;;;18.85;82.12;99748.78;130140;1270;108816;-71
2022/06/08 06:53:29;;;;;;;10.70;7.80;;;;;;;18.88;82.44;99747.81;130100;1271;108779;-71
2022/06/08 06:56:36;;;;;;;8.30;7.50;;;;;;;19.00;81.80;99741.93;130233;1270;108949;-71
2022/06/08 06:59:46;;;;;;;8.80;7.80;;;;;;;19.05;81.58;99742.97;130172;1270;108755;-71
2022/06/08 07:02:53;;;;;;;8.50;7.70;;;;;;;19.12;81.66;99751.10;130159;1270;108731;-71
2022/06/08 07:05:58;;;;;;;8.20;7.40;;;;;;;19.14;81.56;99755.38;130037;1271;108967;-71
2022/06/08 07:09:04;;;;;;;6.90;6.20;;;;;;;19.12;81.47;99754.27;130152;1270;108756;-71
2022/06/08 07:12:16;;;;;;;8.00;7.20;;;;;;;19.12;81.53;99752.80;130162;1270;108836;-71
2022/06/08 07:15:28;;;;;;;7.80;6.90;;;;;;;19.15;81.53;99751.06;130207;1270;108881;-71
2022/06/08 07:18:34;;;;;;;7.10;6.40;;;;;;;19.26;81.63;99757.64;130195;1270;108758;-72
2022/06/08 07:21:41;;;;;;;7.10;6.40;;;;;;;19.37;81.26;99754.20;130176;1270;108735;-71
2022/06/08 07:24:46;;;;;;;7.70;6.40;;;;;;;19.41;80.77;99754.38;130129;1270;107644;-71
2022/06/08 07:27:51;;;;;;;7.00;6.30;;;;;;;19.39;80.85;99751.01;130106;1270;108834;-71
2022/06/08 07:30:57;;;;;;;6.90;6.30;;;;;;;19.39;80.47;99741.70;130160;1270;107751;-71
2022/06/08 07:34:02;;;;;;;6.70;6.10;;;;;;;19.46;80.63;99737.55;130152;1270;108668;-71
2022/06/08 07:37:08;;;;;;;7.80;7.00;;;;;;;19.60;80.70;99742.73;130154;1270;108879;-71
2022/06/08 07:40:15;;;;;;;7.10;5.60;;;;;;;19.76;80.26;99745.75;130086;1271;108792;-71
2022/06/08 07:43:21;;;;;;;5.90;5.30;;;;;;;19.92;80.02;99740.98;130115;1270;108764;-71
2022/06/08 07:46:26;;;;;;;5.80;5.00;;;;;;;20.12;79.86;99734.17;130175;1270;108859;-71
2022/06/08 07:49:37;;;;;;;4.50;4.10;;;;;;;20.32;79.56;99736.12;130119;1270;108540;-71
2022/06/08 07:52:43;;;;;;;5.10;4.70;;;;;;;20.55;79.27;99734.92;130114;1271;108760;-71
2022/06/08 07:55:48;;;;;;;5.80;5.30;;;;;;;20.81;79.19;99736.80;130127;1270;107951;-72
2022/06/08 07:58:53;;;;;;;5.60;5.00;;;;;;;21.02;78.74;99738.51;130030;1270;108877;-72
2022/06/08 08:01:59;;;;;;;5.20;4.70;;;;;;;21.06;78.41;99736.55;130146;1270;107857;-71
2022/06/08 08:05:06;;;;;;;5.20;4.70;;;;;;;21.13;78.28;99735.42;130166;1271;108720;-73
2022/06/08 08:08:12;;;;;;;5.80;5.30;;;;;;;21.32;77.26;99744.42;130146;1270;108675;-71
2022/06/08 08:11:17;;;;;;;5.50;4.40;;;;;;;21.38;77.72;99743.05;130159;1270;108754;-70
2022/06/08 08:14:24;;;;;;;5.70;4.40;;;;;;;21.62;78.00;99745.94;129958;1270;108872;-70
2022/06/08 08:17:29;;;;;;;5.70;5.10;;;;;;;21.79;76.95;99744.02;129976;1271;108726;-71
2022/06/08 08:20:35;;;;;;;6.00;5.40;;;;;;;21.76;76.38;99748.30;129919;1270;108384;-70
2022/06/08 08:23:40;;;;;;;5.50;4.80;;;;;;;21.78;75.83;99739.40;130039;1270;108705;-70
2022/06/08 08:26:48;;;;;;;5.60;4.70;;;;;;;21.93;76.35;99738.55;130216;1271;108515;-71
2022/06/08 08:29:54;;;;;;;4.90;4.50;;;;;;;22.21;76.64;99730.36;130159;1270;108889;-70
2022/06/08 08:32:59;;;;;;;5.60;5.10;;;;;;;22.54;76.34;99730.51;130106;1271;108506;-71
2022/06/08 08:36:04;;;;;;;6.10;5.60;;;;;;;22.70;75.72;99736.38;130079;1269;108854;-71
2022/06/08 08:39:10;;;;;;;5.70;4.90;;;;;;;22.71;74.61;99739.23;130003;1271;108986;-70
2022/06/08 08:42:22;;;;;;;6.10;5.50;;;;;;;22.77;75.54;99743.75;130046;1270;107701;-72
2022/06/08 08:45:29;;;;;;;6.00;5.00;;;;;;;22.81;74.30;99745.65;130079;1270;108629;-72
2022/06/08 08:48:46;;;;;;;5.40;4.90;;;;;;;22.83;74.57;99750.73;130086;1271;108668;-72
2022/06/08 08:52:00;;;;;;;6.00;5.50;;;;;;;22.94;74.73;99756.81;130071;1271;109717;-71
2022/06/08 08:55:18;;;;;;;6.30;5.70;;;;;;;23.18;74.82;99751.55;130095;1271;108811;-71
2022/06/08 08:58:28;;;;;;;6.50;5.60;;;;;;;23.30;73.17;99752.45;130165;1270;109089;-72
2022/06/08 09:01:39;;;;;;;6.40;5.80;;;;;;;23.30;73.79;99755.05;130165;1271;108800;-71
2022/06/08 09:04:47;;;;;;;6.30;5.70;;;;;;;23.34;73.18;99753.20;130190;1271;108876;-72
2022/06/08 09:07:55;;;;;;;6.70;5.20;;;;;;;23.29;72.98;99745.13;130129;1271;108803;-75
2022/06/08 09:11:03;;;;;;;7.10;6.40;;;;;;;23.46;72.47;99738.90;129933;1271;108725;-75
2022/06/08 09:14:13;;;;;;;7.50;6.80;;;;;;;23.51;72.31;99747.63;130207;1271;108772;-73
2022/06/08 09:17:31;;;;;;;7.50;6.80;;;;;;;23.65;72.49;99743.14;130181;1271;108312;-71
2022/06/08 09:20:38;;;;;;;6.40;5.90;;;;;;;23.75;72.15;99740.94;130201;1271;107581;-71
2022/06/08 09:23:44;;;;;;;6.50;5.90;;;;;;;23.91;71.50;99735.87;130200;1271;109006;-75
2022/06/08 09:26:55;;;;;;;6.40;5.80;;;;;;;24.10;71.36;99737.67;130189;1270;107956;-71
2022/06/08 09:30:16;;;;;;;9.40;6.20;;;;;;;24.25;71.37;99733.53;130150;1270;109142;-71
2022/06/08 09:33:27;;;;;;;6.30;5.70;;;;;;;24.28;71.22;99732.04;130203;1271;108914;-71
2022/06/08 09:36:34;;;;;;;6.30;5.70;;;;;;;24.25;70.87;99728.35;130187;1271;108680;-74
2022/06/08 09:39:42;;;;;;;6.10;5.50;;;;;;;24.34;70.38;99722.02;130340;1271;108975;-75
2022/06/08 09:43:02;;;;;;;6.00;5.50;;;;;;;24.51;69.98;99723.77;130399;1271;108697;-73
2022/06/08 09:46:14;;;;;;;5.90;5.40;;;;;;;24.76;69.43;99726.58;130102;1271;108819;-72
2022/06/08 09:53:06;;;;;;;6.20;5.60;;;;;;;25.28;68.71;99731.75;130143;1270;108546;-73
2022/06/08 09:56:24;;;;;;;5.90;5.40;;;;;;;25.28;68.31;99734.63;130183;1271;107638;-76
2022/06/08 09:59:50;;;;;;;7.00;6.40;;;;;;;25.10;68.07;99731.88;130218;1271;107726;-72
2022/06/08 10:03:12;;;;;;;7.70;6.80;;;;;;;24.83;67.49;99733.84;130223;1271;108977;-71
2022/06/08 10:06:27;;;;;;;7.10;6.40;;;;;;;24.53;67.26;99736.23;130121;1271;108699;-72
2022/06/08 10:09:43;;;;;;;11.20;9.80;;;;;;;24.28;67.19;99734.60;130334;1270;108565;-73
2022/06/08 10:12:57;;;;;;;10.60;9.40;;;;;;;24.02;66.84;99732.89;130178;1271;108965;-77
2022/06/08 10:16:06;;;;;;;9.10;7.80;;;;;;;23.83;66.91;99733.37;130279;1270;108528;-72
2022/06/08 10:19:20;;;;;;;8.80;7.90;;;;;;;23.66;67.22;99731.98;130234;1270;108922;-72
2022/06/08 10:22:30;;;;;;;7.30;6.60;;;;;;;23.64;67.54;99727.31;130211;1269;108621;-73
2022/06/08 10:25:41;;;;;;;6.30;5.50;;;;;;;23.74;68.04;99727.12;130195;1271;108755;-72
2022/06/08 10:28:50;;;;;;;5.10;4.50;;;;;;;23.86;67.93;99726.76;130302;1271;108682;-72
2022/06/08 10:31:59;;;;;;;5.10;4.60;;;;;;;23.87;67.60;99727.60;130281;1270;109826;-74
2022/06/08 10:35:21;;;;;;;5.20;4.70;;;;;;;23.79;67.53;99727.77;130194;1271;108736;-71
2022/06/08 10:38:29;;;;;;;5.20;4.60;;;;;;;23.77;67.62;99726.73;130185;1270;108694;-73
2022/06/08 10:45:24;;;;;;;7.50;5.80;;;;;;;23.62;67.96;99728.94;130204;1270;108528;-73
2022/06/08 10:48:50;;;;;;;6.00;5.40;;;;;;;23.56;67.73;99726.23;130167;1271;108710;-73
2022/06/08 10:52:15;;;;;;;6.90;5.90;;;;;;;23.45;67.51;99731.88;130151;1270;108510;-72
2022/06/08 10:55:40;;;;;;;5.50;5.00;;;;;;;23.27;67.56;99733.61;130235;1270;108878;-72
2022/06/08 10:59:05;;;;;;;5.50;3.90;;;;;;;23.17;68.17;99735.97;130203;1271;108956;-74
2022/06/08 11:02:30;;;;;;;4.50;4.00;;;;;;;23.11;68.10;99740.08;130164;1271;108928;-74
2022/06/08 11:05:39;;;;;;;3.90;3.60;;;;;;;23.05;68.21;99737.91;130192;1271;108655;-73
2022/06/08 11:08:52;;;;;;;4.60;3.80;;;;;;;23.02;68.35;99734.52;130226;1271;108771;-73
2022/06/08 11:12:05;;;;;;;5.10;4.30;;;;;;;23.02;68.08;99732.36;130270;1271;108789;-71
2022/06/08 11:15:22;;;;;;;5.10;4.60;;;;;;;22.87;67.69;99722.74;130244;1271;108798;-73
2022/06/08 11:18:33;;;;;;;7.00;6.20;;;;;;;22.71;68.35;99716.87;130181;1270;107685;-74
2022/06/08 11:21:50;;;;;;;7.00;6.10;;;;;;;22.65;68.00;99719.38;130194;1271;108742;-73
2022/06/08 11:24:59;;;;;;;5.60;5.10;;;;;;;22.55;68.26;99718.57;130243;1271;107556;-74
2022/06/08 11:28:34;;;;;;;5.40;4.90;;;;;;;22.64;68.79;99719.96;130209;1270;108802;-74
2022/06/08 11:31:54;;;;;;;5.70;5.10;;;;;;;22.81;68.70;99718.08;130243;1271;108798;-73
2022/06/08 11:35:30;;;;;;;5.40;4.90;;;;;;;22.87;68.87;99716.98;130208;1271;108704;-74
2022/06/08 11:38:51;;;;;;;4.40;4.00;;;;;;;22.92;68.78;99714.50;129943;1269;108564;-74
2022/06/08 11:42:15;;;;;;;4.20;3.80;;;;;;;22.94;68.41;99705.38;130197;1271;108872;-76
2022/06/08 11:45:23;;;;;;;4.50;4.20;;;;;;;22.95;68.56;99702.29;130182;1271;107699;-75
2022/06/08 11:48:31;;;;;;;4.90;4.40;;;;;;;22.87;68.23;99698.46;130170;1271;108883;-73
2022/06/08 11:51:41;;;;;;;4.50;4.10;;;;;;;22.80;67.94;99704.18;130193;1271;108792;-73
2022/06/08 11:54:46;;;;;;;4.90;4.50;;;;;;;22.85;68.46;99710.74;130315;1271;109032;-72
2022/06/08 11:57:56;;;;;;;5.10;4.60;;;;;;;22.92;68.53;99721.20;130237;1271;108572;-74
2022/06/08 12:01:03;;;;;;;4.80;4.40;;;;;;;23.00;68.86;99714.23;130213;1271;108852;-75
2022/06/08 12:04:13;;;;;;;4.90;4.50;;;;;;;23.07;69.06;99711.60;130179;1271;108329;-74
2022/06/08 12:07:43;;;;;;;5.00;4.20;;;;;;;23.08;69.05;99710.09;130187;1271;108575;-76
2022/06/08 12:10:48;;;;;;;4.30;3.90;;;;;;;23.08;69.26;99708.73;130243;1271;109145;-73
2022/06/08 12:14:00;;;;;;;5.40;4.20;;;;;;;23.06;69.05;99708.44;130236;1271;108493;-73
2022/06/08 12:17:23;;;;;;;5.20;4.70;;;;;;;23.10;69.05;99706.66;130232;1271;108860;-72
2022/06/08 12:20:36;;;;;;;5.50;4.90;;;;;;;23.16;69.25;99707.39;130114;1271;109060;-72
2022/06/08 12:23:45;;;;;;;5.90;5.30;;;;;;;23.19;69.33;99706.06;130282;1271;108858;-73
2022/06/08 12:26:59;;;;;;;5.80;5.10;;;;;;;23.18;69.19;99702.98;130230;1271;108882;-72
2022/06/08 12:30:18;;;;;;;5.50;4.80;;;;;;;23.18;69.27;99700.81;130150;1271;109116;-73
2022/06/08 12:33:28;;;;;;;5.30;4.80;;;;;;;23.22;69.41;99705.23;130222;1271;107060;-73
2022/06/08 12:36:34;;;;;;;7.00;6.40;;;;;;;23.27;69.65;99710.27;130287;1271;107620;-74
2022/06/08 12:39:41;;;;;;;6.60;5.60;;;;;;;23.30;69.52;99707.48;130298;1271;108958;-72
2022/06/08 12:42:51;;;;;;;5.40;4.80;;;;;;;23.34;69.70;99707.64;130138;1271;107573;-73
2022/06/08 12:46:19;;;;;;;5.50;5.00;;;;;;;23.37;69.69;99711.06;130147;1271;108868;-72
2022/06/08 12:49:27;;;;;;;5.60;5.10;;;;;;;23.42;69.65;99711.78;130012;1271;108749;-72
2022/06/08 12:52:36;;;;;;;5.10;4.70;;;;;;;23.38;69.50;99707.91;130114;1271;108968;-72
2022/06/08 12:55:41;;;;;;;5.00;4.60;;;;;;;23.31;69.41;99707.59;130113;1271;108608;-72
2022/06/08 12:58:46;;;;;;;5.00;4.60;;;;;;;23.20;69.48;99706.95;130126;1271;108849;-72
2022/06/08 13:01:55;;;;;;;4.90;4.30;;;;;;;23.15;69.78;99707.96;129871;1271;499521;-72
2022/06/08 13:05:03;;;;;;;4.70;4.30;;;;;;;23.13;69.61;99702.82;130057;1271;108844;-72
2022/06/08 13:08:12;;;;;;;4.70;4.30;;;;;;;23.06;69.48;99698.26;129905;1271;108749;-72
2022/06/08 13:11:20;;;;;;;5.10;4.60;;;;;;;23.01;69.45;99693.73;130137;1271;107596;-72
2022/06/08 13:14:27;;;;;;;4.90;4.50;;;;;;;22.95;69.67;99694.17;130078;1271;108778;-72
2022/06/08 13:17:32;;;;;;;5.30;4.80;;;;;;;22.91;69.98;99698.70;130068;1271;108885;-72
2022/06/08 13:20:39;;;;;;;6.00;4.50;;;;;;;22.92;69.97;99696.05;130148;1271;108932;-73
2022/06/08 13:23:46;;;;;;;5.00;4.60;;;;;;;22.95;69.94;99693.71;130165;1271;109189;-72
2022/06/08 13:26:53;;;;;;;4.80;4.30;;;;;;;23.00;69.93;99691.75;130136;1271;109005;-72
2022/06/08 13:29:58;;;;;;;4.40;3.90;;;;;;;23.02;70.07;99688.52;130077;1271;108839;-72
2022/06/08 13:33:04;;;;;;;3.90;3.60;;;;;;;23.03;69.93;99685.61;130112;1271;108740;-72
2022/06/08 13:36:20;;;;;;;4.50;4.10;;;;;;;23.02;70.03;99687.00;130164;1271;108845;-72
2022/06/08 13:39:30;;;;;;;4.30;4.00;;;;;;;23.01;70.02;99691.29;130203;1271;108738;-72
2022/06/08 13:42:37;;;;;;;4.60;4.20;;;;;;;22.97;70.15;99686.84;130147;1271;108801;-73
2022/06/08 13:45:46;;;;;;;4.70;4.20;;;;;;;22.94;70.08;99676.86;130161;1271;108685;-72
2022/06/08 13:48:53;;;;;;;4.50;4.00;;;;;;;22.91;69.93;99673.01;130214;1271;108916;-72
2022/06/08 13:51:59;;;;;;;4.50;4.10;;;;;;;22.91;70.27;99665.40;130272;1271;109078;-73
2022/06/08 13:55:08;;;;;;;4.20;3.40;;;;;;;22.92;70.04;99657.79;130113;1271;107653;-72
2022/06/08 13:58:17;;;;;;;4.20;3.80;;;;;;;22.95;70.08;99653.77;130246;1271;108967;-70
2022/06/08 14:01:27;;;;;;;4.80;4.30;;;;;;;22.92;69.46;99648.16;130048;1271;108810;-71
2022/06/08 14:04:34;;;;;;;4.70;4.30;;;;;;;22.77;68.99;99642.77;130011;1271;107254;-72
2022/06/08 14:14:26;;;;;;;4.60;4.20;;;;;;;22.72;69.34;99636.33;130156;1270;108788;-76
2022/06/08 14:17:31;;;;;;;5.50;4.30;;;;;;;22.81;69.19;99634.56;130345;1271;107173;-69
2022/06/08 14:20:39;;;;;;;5.40;4.50;;;;;;;23.05;69.17;99637.17;130021;1271;108880;-70
2022/06/08 14:23:47;;;;;;;4.80;4.40;;;;;;;23.29;69.19;99637.00;130015;1271;108836;-71
2022/06/08 14:26:53;;;;;;;5.30;4.20;;;;;;;23.25;68.62;99630.32;130182;1269;108677;-71
2022/06/08 14:29:58;;;;;;;4.40;4.00;;;;;;;23.19;68.88;99625.71;130192;1271;108947;-72
2022/06/08 14:33:13;;;;;;;4.60;3.60;;;;;;;23.27;69.03;99622.95;130167;1271;109051;-71
2022/06/08 14:36:23;;;;;;;4.20;3.90;;;;;;;23.39;68.59;99616.93;129997;1271;108662;-71
2022/06/08 14:39:33;;;;;;;3.30;2.90;;;;;;;23.39;68.27;99610.50;130200;1271;107768;-71
2022/06/08 14:42:39;;;;;;;3.20;2.90;;;;;;;23.54;68.48;99608.13;130157;1271;108588;-72
2022/06/08 14:45:46;;;;;;;3.30;3.00;;;;;;;23.73;67.87;99606.94;130211;1271;109020;-71